Time;durP1;ratioP1;P1;durP2;ratioP2;P2;SDS_P1;SDS_P2;PMS_P1;PMS_P2;Temp;Humidity;BMP_temperature;BMP_pressure;BME280_temperature;BME280_humidity;BME280_pressure;Samples;Min_cycle;Max_cycle;Signal;HPM_P1;HPM_P2
2021/11/23 00:00:08;;;;;;;12.53;9.13;;;2.10;1.00;;;;;;4984658;28;20452;-78
2021/11/23 00:02:40;;;;;;;18.70;10.40;;;2.00;1.00;;;;;;4973020;28;20471;-78
2021/11/23 00:05:08;;;;;;;12.40;9.23;;;2.00;1.00;;;;;;4972760;28;20766;-78
2021/11/23 00:07:34;;;;;;;17.70;9.30;;;2.00;1.00;;;;;;4981903;28;20471;-78
2021/11/23 00:10:00;;;;;;;14.70;10.33;;;2.10;1.00;;;;;;4983036;28;20483;-78
2021/11/23 00:12:26;;;;;;;16.57;9.73;;;2.20;1.00;;;;;;4983553;28;20460;-78
2021/11/23 00:14:52;;;;;;;20.20;10.23;;;2.30;1.00;;;;;;4983917;28;20522;-78
2021/11/23 00:17:18;;;;;;;13.33;10.17;;;2.20;1.00;;;;;;4983523;28;20459;-78
2021/11/23 00:19:44;;;;;;;13.70;9.53;;;2.30;1.00;;;;;;4983472;28;20191;-78
2021/11/23 00:22:10;;;;;;;15.87;9.97;;;2.30;1.00;;;;;;4984458;28;20451;-79
2021/11/23 00:24:36;;;;;;;14.30;9.40;;;2.20;1.00;;;;;;4984984;28;20539;-77
2021/11/23 00:27:02;;;;;;;13.10;10.10;;;2.10;1.00;;;;;;4986945;28;20463;-77
2021/11/23 00:29:28;;;;;;;14.20;9.38;;;2.00;1.00;;;;;;4928748;28;1054685;-77
2021/11/23 00:31:53;;;;;;;12.70;10.10;;;2.00;1.00;;;;;;4979394;28;20248;-78
2021/11/23 00:34:19;;;;;;;15.07;9.30;;;1.80;1.00;;;;;;4983874;28;20185;-77
2021/11/23 00:36:45;;;;;;;12.90;9.30;;;2.00;1.00;;;;;;4977152;28;20647;-77
2021/11/23 00:39:10;;;;;;;16.23;9.60;;;2.00;1.00;;;;;;4981933;28;20272;-77
2021/11/23 00:41:36;;;;;;;11.67;8.70;;;2.10;1.00;;;;;;4976609;28;20208;-78
2021/11/23 00:44:02;;;;;;;12.67;8.43;;;2.10;1.00;;;;;;4987200;28;20212;-77
2021/11/23 00:46:28;;;;;;;13.10;9.10;;;2.10;1.00;;;;;;4984306;28;20184;-77
2021/11/23 00:48:53;;;;;;;14.60;7.93;;;2.20;1.00;;;;;;4982677;28;20932;-77
2021/11/23 00:51:19;;;;;;;10.83;9.00;;;2.20;1.00;;;;;;4977331;28;20410;-77
2021/11/23 00:53:45;;;;;;;16.27;8.93;;;2.20;1.00;;;;;;4976292;28;20188;-78
2021/11/23 00:56:11;;;;;;;13.47;8.50;;;2.20;1.00;;;;;;4966175;28;20824;-78
2021/11/23 00:58:36;;;;;;;14.23;9.40;;;2.10;1.00;;;;;;4984850;28;20188;-77
2021/11/23 01:01:03;;;;;;;14.20;9.83;;;2.10;1.00;;;;;;4979300;28;20290;-77
2021/11/23 01:03:32;;;;;;;19.97;9.23;;;2.10;1.00;;;;;;4984766;28;20200;-77
2021/11/23 01:05:59;;;;;;;13.53;9.80;;;2.00;1.00;;;;;;4975352;28;20447;-77
2021/11/23 01:08:27;;;;;;;13.97;9.73;;;2.00;1.00;;;;;;4981017;28;20454;-77
2021/11/23 01:10:54;;;;;;;13.10;8.77;;;2.00;1.00;;;;;;4970430;28;20859;-77
2021/11/23 01:13:20;;;;;;;12.67;9.40;;;2.10;1.00;;;;;;4983354;28;20450;-77
2021/11/23 01:15:46;;;;;;;13.80;9.50;;;2.20;1.00;;;;;;4977071;28;20576;-78
2021/11/23 01:18:12;;;;;;;13.47;8.97;;;2.20;1.00;;;;;;4987075;28;21169;-77
2021/11/23 01:20:38;;;;;;;11.93;8.30;;;2.00;1.00;;;;;;4974588;28;20776;-78
2021/11/23 01:23:05;;;;;;;11.90;7.70;;;2.00;1.00;;;;;;4980093;28;21428;-77
2021/11/23 01:25:31;;;;;;;17.00;10.20;;;1.90;1.00;;;;;;4983270;28;21005;-77
2021/11/23 01:27:58;;;;;;;16.37;10.60;;;1.90;1.00;;;;;;4968245;28;20525;-78
2021/11/23 01:30:23;;;;;;;14.00;9.73;;;1.90;1.00;;;;;;4977332;28;20212;-76
2021/11/23 01:32:49;;;;;;;12.63;9.53;;;1.80;1.00;;;;;;4980200;28;20450;-77
2021/11/23 01:35:16;;;;;;;14.40;8.80;;;1.80;1.00;;;;;;4980973;28;20184;-76
2021/11/23 01:37:43;;;;;;;17.67;9.77;;;1.80;1.00;;;;;;4981953;28;20290;-77
2021/11/23 01:40:11;;;;;;;12.63;8.27;;;1.90;1.00;;;;;;4983256;28;20467;-77
2021/11/23 01:42:37;;;;;;;14.73;9.70;;;2.00;1.00;;;;;;4980366;28;20481;-77
2021/11/23 01:45:05;;;;;;;13.97;10.00;;;2.10;1.00;;;;;;4983329;28;20967;-77
2021/11/23 01:47:31;;;;;;;14.13;9.70;;;2.10;1.00;;;;;;4984138;28;20454;-77
2021/11/23 01:49:57;;;;;;;11.97;8.60;;;2.10;1.00;;;;;;4982903;28;20834;-78
2021/11/23 01:52:24;;;;;;;12.00;8.40;;;1.90;1.00;;;;;;4979912;28;20907;-78
2021/11/23 01:54:51;;;;;;;18.40;8.70;;;1.90;1.00;;;;;;4983388;28;20196;-77
2021/11/23 01:57:17;;;;;;;11.00;8.33;;;1.70;1.00;;;;;;4981030;28;20460;-77
2021/11/23 01:59:43;;;;;;;11.63;8.87;;;1.70;1.00;;;;;;4983021;28;20521;-78
2021/11/23 02:02:08;;;;;;;17.20;11.10;;;1.60;1.00;;;;;;4973604;28;20446;-78
2021/11/23 02:04:34;;;;;;;16.50;10.67;;;1.50;1.00;;;;;;4978829;28;20888;-78
2021/11/23 02:07:00;;;;;;;13.70;9.83;;;1.60;1.00;;;;;;4975715;28;20196;-78
2021/11/23 02:09:26;;;;;;;17.10;10.20;;;1.70;1.00;;;;;;4977904;28;20679;-77
2021/11/23 02:11:53;;;;;;;14.93;10.10;;;1.60;1.00;;;;;;4984487;28;20220;-77
2021/11/23 02:14:22;;;;;;;14.17;9.20;;;1.70;1.00;;;;;;4978429;28;20444;-77
2021/11/23 02:16:48;;;;;;;16.43;10.70;;;1.70;1.00;;;;;;4984362;28;20790;-77
2021/11/23 02:19:15;;;;;;;16.40;10.20;;;1.80;1.00;;;;;;4983137;28;20937;-78
2021/11/23 02:21:40;;;;;;;13.37;9.67;;;2.00;1.00;;;;;;4985539;28;20459;-77
2021/11/23 02:24:06;;;;;;;13.83;9.33;;;1.80;1.00;;;;;;4985456;28;20193;-78
2021/11/23 02:26:32;;;;;;;13.90;8.67;;;1.80;1.00;;;;;;4981414;28;20552;-78
2021/11/23 02:28:58;;;;;;;16.93;10.97;;;1.80;1.00;;;;;;4982238;28;20301;-77
2021/11/23 02:31:23;;;;;;;18.53;12.40;;;1.90;1.00;;;;;;4974764;28;20311;-77
2021/11/23 02:33:50;;;;;;;19.70;10.83;;;1.90;1.00;;;;;;4978992;28;20542;-77
2021/11/23 02:36:16;;;;;;;15.30;10.00;;;1.90;1.00;;;;;;4969278;28;20785;-77
2021/11/23 02:38:41;;;;;;;15.53;11.70;;;2.00;1.00;;;;;;4954618;28;20487;-77
2021/11/23 02:41:11;;;;;;;16.77;10.90;;;2.00;1.00;;;;;;4986625;28;20909;-77
2021/11/23 02:43:38;;;;;;;18.00;12.10;;;2.00;1.00;;;;;;4985733;28;20189;-77
2021/11/23 02:46:04;;;;;;;14.07;10.97;;;2.00;1.00;;;;;;4981241;28;20485;-76
2021/11/23 02:48:30;;;;;;;16.07;11.70;;;2.10;1.00;;;;;;4985223;28;20549;-77
2021/11/23 02:53:25;;;;;;;17.20;11.03;;;2.10;1.00;;;;;;4979042;28;20181;-77
2021/11/23 02:55:50;;;;;;;16.60;10.57;;;2.00;1.00;;;;;;4980785;28;20446;-77
2021/11/23 02:58:16;;;;;;;18.50;10.80;;;2.10;1.00;;;;;;4987035;28;20240;-78
2021/11/23 03:00:44;;;;;;;18.70;11.97;;;2.10;1.00;;;;;;4986143;28;20200;-76
2021/11/23 03:03:10;;;;;;;22.30;12.70;;;2.10;1.00;;;;;;4983476;28;20700;-78
2021/11/23 03:05:37;;;;;;;17.20;11.97;;;2.10;1.00;;;;;;4979948;28;20849;-77
2021/11/23 03:08:03;;;;;;;16.77;11.80;;;2.10;1.00;;;;;;4991450;28;20482;-76
2021/11/23 03:10:31;;;;;;;24.03;11.27;;;2.10;1.00;;;;;;4989925;28;20977;-78
2021/11/23 03:12:57;;;;;;;19.40;13.27;;;2.20;1.00;;;;;;4971982;28;20503;-78
2021/11/23 03:15:25;;;;;;;20.23;12.73;;;2.20;1.00;;;;;;4990147;28;20451;-78
2021/11/23 03:17:51;;;;;;;21.50;12.73;;;2.30;1.00;;;;;;4988158;28;20493;-78
2021/11/23 03:20:20;;;;;;;18.53;13.30;;;2.40;1.00;;;;;;4988605;28;20452;-77
2021/11/23 03:22:47;;;;;;;16.47;12.10;;;2.20;1.00;;;;;;4977112;28;20869;-79
2021/11/23 03:25:14;;;;;;;17.63;13.47;;;2.40;1.00;;;;;;4980097;28;20444;-79
2021/11/23 03:27:40;;;;;;;21.90;14.87;;;2.40;1.00;;;;;;4982958;28;20490;-78
2021/11/23 03:30:09;;;;;;;21.33;14.13;;;2.50;1.00;;;;;;4987625;28;20475;-78
2021/11/23 03:32:36;;;;;;;23.33;14.60;;;2.50;1.00;;;;;;4982866;28;20574;-79
2021/11/23 03:35:04;;;;;;;18.60;13.27;;;2.60;1.00;;;;;;4983486;28;20451;-78
2021/11/23 03:37:30;;;;;;;18.20;13.00;;;2.60;1.00;;;;;;4984744;28;20219;-78
2021/11/23 03:39:58;;;;;;;21.20;14.10;;;2.60;1.00;;;;;;4982722;28;20466;-79
2021/11/23 03:42:24;;;;;;;19.90;12.60;;;2.50;1.00;;;;;;4982032;28;20490;-79
2021/11/23 03:44:50;;;;;;;22.83;13.00;;;2.50;1.00;;;;;;4988681;28;20689;-79
2021/11/23 03:47:17;;;;;;;19.47;14.13;;;2.60;1.00;;;;;;4984478;28;20889;-79
2021/11/23 03:49:46;;;;;;;20.10;13.33;;;2.60;1.00;;;;;;4987084;28;20228;-79
2021/11/23 03:52:13;;;;;;;19.77;14.00;;;2.60;1.00;;;;;;4987998;28;20530;-79
2021/11/23 03:54:42;;;;;;;19.13;12.77;;;2.70;1.00;;;;;;4985274;28;20459;-79
2021/11/23 03:57:08;;;;;;;20.60;13.40;;;2.60;1.00;;;;;;4978184;28;20618;-79
2021/11/23 03:59:34;;;;;;;21.30;13.63;;;2.60;1.00;;;;;;4979241;28;20511;-80
2021/11/23 04:02:00;;;;;;;18.40;13.17;;;2.70;1.00;;;;;;4978888;28;20455;-79
2021/11/23 04:04:25;;;;;;;17.10;12.87;;;2.70;1.00;;;;;;4981019;28;20271;-80
2021/11/23 04:06:51;;;;;;;16.53;11.20;;;2.70;1.00;;;;;;4985592;28;20296;-79
2021/11/23 04:09:17;;;;;;;17.70;12.50;;;2.80;1.00;;;;;;4987057;28;20455;-80
2021/11/23 04:11:43;;;;;;;15.60;12.10;;;2.80;1.00;;;;;;4986392;28;20216;-79
2021/11/23 04:14:08;;;;;;;26.23;13.90;;;2.80;1.00;;;;;;4981385;28;20764;-79
2021/11/23 04:16:34;;;;;;;23.20;13.87;;;2.80;1.00;;;;;;4980096;28;20181;-80
2021/11/23 04:19:00;;;;;;;17.80;12.30;;;2.90;1.00;;;;;;4980913;28;21778;-81
2021/11/23 04:21:26;;;;;;;18.93;12.83;;;2.90;1.00;;;;;;4981901;28;20195;-81
2021/11/23 04:23:51;;;;;;;18.03;12.60;;;2.90;1.00;;;;;;4967368;28;20331;-80
2021/11/23 04:26:17;;;;;;;20.20;13.00;;;2.80;1.00;;;;;;4978106;28;20683;-80
2021/11/23 04:28:43;;;;;;;17.67;12.10;;;2.90;1.00;;;;;;4984019;28;20343;-80
2021/11/23 04:31:08;;;;;;;18.87;13.00;;;2.80;1.00;;;;;;4982578;28;20683;-80
2021/11/23 04:33:34;;;;;;;19.10;13.30;;;2.80;1.00;;;;;;4946720;28;20194;-80
2021/11/23 04:36:01;;;;;;;19.87;12.77;;;2.70;1.00;;;;;;4977832;28;20189;-80
2021/11/23 04:38:27;;;;;;;22.03;13.73;;;2.80;1.00;;;;;;4983007;28;20451;-81
2021/11/23 04:40:53;;;;;;;26.77;13.97;;;2.90;1.00;;;;;;4980992;28;20459;-80
2021/11/23 04:43:19;;;;;;;22.10;14.30;;;2.80;1.00;;;;;;4980250;28;20637;-80
2021/11/23 04:45:45;;;;;;;19.40;13.57;;;2.80;1.00;;;;;;4973379;28;20475;-80
2021/11/23 04:48:11;;;;;;;20.33;14.10;;;2.70;1.00;;;;;;4978140;28;20561;-80
2021/11/23 04:50:37;;;;;;;23.03;14.53;;;2.80;1.00;;;;;;4970882;28;20907;-81
2021/11/23 04:53:03;;;;;;;21.27;15.13;;;2.90;1.00;;;;;;4972695;28;20188;-80
2021/11/23 04:55:30;;;;;;;22.20;14.47;;;2.80;1.00;;;;;;4975066;28;20319;-81
2021/11/23 04:57:55;;;;;;;20.70;13.20;;;2.70;1.00;;;;;;4981311;28;21596;-80
2021/11/23 05:00:21;;;;;;;19.33;12.97;;;2.70;1.00;;;;;;4979844;28;20466;-80
2021/11/23 05:02:47;;;;;;;21.83;15.10;;;2.90;1.00;;;;;;4981547;28;20197;-80
2021/11/23 05:05:14;;;;;;;23.83;13.70;;;3.00;1.00;;;;;;4976550;28;20732;-81
2021/11/23 05:07:41;;;;;;;20.53;15.27;;;3.10;1.00;;;;;;4977111;28;20688;-81
2021/11/23 05:10:09;;;;;;;23.50;14.80;;;3.10;1.00;;;;;;4972541;28;20482;-80
2021/11/23 05:12:35;;;;;;;24.60;14.67;;;3.10;1.00;;;;;;4967116;28;20683;-80
2021/11/23 05:15:01;;;;;;;24.50;13.53;;;3.10;1.00;;;;;;4979541;28;20547;-80
2021/11/23 05:17:27;;;;;;;22.43;13.70;;;3.10;1.00;;;;;;4981028;28;20177;-80
2021/11/23 05:19:53;;;;;;;24.93;14.10;;;3.10;1.00;;;;;;4982249;28;20442;-79
2021/11/23 05:22:18;;;;;;;20.27;14.23;;;3.10;1.00;;;;;;4965535;28;20193;-79
2021/11/23 05:24:44;;;;;;;26.30;15.53;;;3.20;1.00;;;;;;4972642;28;20240;-80
2021/11/23 05:27:10;;;;;;;27.23;16.20;;;3.20;1.00;;;;;;4985822;28;20204;-79
2021/11/23 05:29:36;;;;;;;23.80;14.70;;;3.30;1.00;;;;;;4974735;28;20831;-79
2021/11/23 05:32:02;;;;;;;24.23;15.10;;;3.40;1.00;;;;;;4965029;28;20216;-79
2021/11/23 05:34:27;;;;;;;25.27;16.20;;;3.30;1.00;;;;;;4971768;28;21003;-79
2021/11/23 05:36:53;;;;;;;23.17;15.17;;;3.30;1.00;;;;;;4974409;28;20451;-80
2021/11/23 05:39:19;;;;;;;24.63;15.97;;;3.30;1.00;;;;;;4974677;28;20220;-79
2021/11/23 05:41:45;;;;;;;21.40;14.77;;;3.30;1.00;;;;;;4957191;28;20204;-78
2021/11/23 05:44:12;;;;;;;18.90;13.30;;;3.40;1.00;;;;;;4976220;28;20243;-79
2021/11/23 05:46:39;;;;;;;22.53;14.37;;;3.30;1.00;;;;;;4979942;28;20455;-79
2021/11/23 05:49:05;;;;;;;22.10;13.90;;;3.20;1.00;;;;;;4980121;28;21027;-79
2021/11/23 05:51:31;;;;;;;24.93;14.80;;;3.20;1.00;;;;;;4969163;28;20674;-80
2021/11/23 05:53:57;;;;;;;23.53;14.60;;;3.30;1.00;;;;;;4956298;28;20527;-79
2021/11/23 05:56:23;;;;;;;25.67;15.70;;;3.30;1.00;;;;;;4967378;28;20443;-78
2021/11/23 05:58:49;;;;;;;24.07;14.87;;;3.40;1.00;;;;;;4972978;28;24913;-78
2021/11/23 06:01:15;;;;;;;27.33;16.43;;;3.40;1.00;;;;;;4971452;28;20916;-79
2021/11/23 06:03:41;;;;;;;24.07;15.10;;;3.40;1.00;;;;;;4971067;28;20532;-80
2021/11/23 06:06:07;;;;;;;23.20;14.30;;;3.40;1.00;;;;;;4970274;28;20827;-79
2021/11/23 06:08:33;;;;;;;26.40;15.90;;;3.40;1.00;;;;;;4974895;28;20224;-79
2021/11/23 06:10:59;;;;;;;28.80;16.57;;;3.40;1.00;;;;;;4979114;28;20858;-79
2021/11/23 06:13:25;;;;;;;25.63;14.97;;;3.50;1.00;;;;;;4982970;28;20542;-79
2021/11/23 06:15:51;;;;;;;30.37;15.83;;;3.50;1.00;;;;;;4979848;28;20435;-79
2021/11/23 06:18:17;;;;;;;21.10;15.57;;;3.40;1.00;;;;;;4983697;28;20192;-79
2021/11/23 06:20:44;;;;;;;23.40;15.37;;;3.40;1.00;;;;;;4985016;28;20216;-79
2021/11/23 06:23:13;;;;;;;20.40;14.63;;;3.50;1.00;;;;;;4992212;28;20722;-79
2021/11/23 06:25:41;;;;;;;26.63;16.50;;;3.40;1.00;;;;;;4981131;28;21006;-80
2021/11/23 06:28:07;;;;;;;24.87;16.00;;;3.30;1.00;;;;;;4968524;28;20487;-79
2021/11/23 06:30:33;;;;;;;24.00;15.60;;;3.50;1.00;;;;;;4983108;28;20490;-79
2021/11/23 06:32:59;;;;;;;24.33;15.07;;;3.50;1.00;;;;;;4984486;28;20177;-79
2021/11/23 06:35:25;;;;;;;23.20;15.30;;;3.50;1.00;;;;;;4980710;28;20875;-79
2021/11/23 06:37:51;;;;;;;28.20;16.50;;;3.50;1.00;;;;;;4981381;28;20589;-79
2021/11/23 06:40:16;;;;;;;23.57;16.20;;;3.50;1.00;;;;;;4994443;28;20604;-79
2021/11/23 06:42:42;;;;;;;23.57;16.03;;;3.50;1.00;;;;;;4978921;28;20258;-79
2021/11/23 06:45:08;;;;;;;22.90;16.07;;;3.60;1.00;;;;;;4987392;28;20208;-79
2021/11/23 06:47:34;;;;;;;32.70;17.27;;;3.50;1.00;;;;;;4983142;28;20192;-78
2021/11/23 06:50:02;;;;;;;27.33;17.70;;;3.50;1.00;;;;;;4968059;28;20851;-78
2021/11/23 06:52:28;;;;;;;25.70;15.67;;;3.50;1.00;;;;;;4978790;28;20945;-79
2021/11/23 06:54:54;;;;;;;24.80;17.07;;;3.60;1.00;;;;;;4978689;28;24532;-78
2021/11/23 06:57:19;;;;;;;27.33;16.80;;;3.60;18.70;;;;;;4980544;28;20239;-78
2021/11/23 06:59:46;;;;;;;25.40;16.93;;;3.60;12.40;;;;;;4963383;28;20199;-79
2021/11/23 07:02:11;;;;;;;27.00;18.63;;;3.50;38.20;;;;;;4974859;28;20449;-80
2021/11/23 07:04:37;;;;;;;25.77;16.63;;;3.40;52.60;;;;;;4975283;28;20464;-79
2021/11/23 07:07:03;;;;;;;31.50;17.30;;;3.50;99.90;;;;;;5001734;28;20585;-78
2021/11/23 07:09:29;;;;;;;32.00;19.90;;;3.50;99.90;;;;;;4992308;28;20447;-79
2021/11/23 07:11:55;;;;;;;32.07;18.07;;;3.40;99.90;;;;;;4992710;28;20493;-78
2021/11/23 07:14:21;;;;;;;30.90;18.80;;;3.40;99.90;;;;;;4997900;28;20489;-78
2021/11/23 07:16:47;;;;;;;32.70;19.57;;;3.40;99.90;;;;;;4983554;28;20446;-79
2021/11/23 07:19:14;;;;;;;32.03;20.03;;;3.40;99.90;;;;;;4997949;28;20466;-78
2021/11/23 07:21:40;;;;;;;42.20;20.07;;;3.30;99.90;;;;;;4997976;28;20558;-78
2021/11/23 07:24:06;;;;;;;39.53;21.17;;;3.30;99.90;;;;;;5000566;28;20850;-80
2021/11/23 07:26:33;;;;;;;33.47;19.70;;;3.40;99.90;;;;;;4996785;28;20518;-78
2021/11/23 07:29:00;;;;;;;27.90;19.40;;;3.30;99.90;;;;;;4998086;28;20568;-78
2021/11/23 07:31:26;;;;;;;34.33;21.60;;;3.30;99.90;;;;;;4996061;28;21032;-79
2021/11/23 07:33:52;;;;;;;35.60;21.20;;;3.30;99.90;;;;;;4993536;28;20448;-79
2021/11/23 07:36:19;;;;;;;33.43;19.10;;;3.40;99.90;;;;;;4991442;28;20933;-78
2021/11/23 07:38:46;;;;;;;40.43;21.50;;;3.40;99.90;;;;;;4991846;28;20501;-78
2021/11/23 07:41:12;;;;;;;34.30;20.93;;;3.40;99.90;;;;;;4988232;28;20447;-79
2021/11/23 07:43:38;;;;;;;31.73;20.87;;;3.50;1.00;;;;;;4986433;28;21213;-79
2021/11/23 07:46:04;;;;;;;35.57;22.50;;;3.50;1.00;;;;;;4988811;28;20687;-78
2021/11/23 07:48:29;;;;;;;35.40;21.30;;;3.60;1.00;;;;;;4994487;28;20213;-79
2021/11/23 07:50:55;;;;;;;41.53;21.40;;;3.50;1.00;;;;;;4959874;28;20709;-79
2021/11/23 07:53:21;;;;;;;35.83;22.57;;;3.50;1.00;;;;;;4981943;28;20176;-79
2021/11/23 07:55:49;;;;;;;36.70;23.10;;;3.50;1.00;;;;;;4970505;28;20567;-79
2021/11/23 07:58:16;;;;;;;29.57;18.90;;;3.50;1.00;;;;;;4988105;28;20626;-78
2021/11/23 08:00:42;;;;;;;41.07;23.10;;;3.50;1.00;;;;;;4982809;28;20455;-79
2021/11/23 08:03:09;;;;;;;34.00;23.07;;;3.60;1.00;;;;;;4979747;28;20436;-79
2021/11/23 08:05:37;;;;;;;33.50;22.70;;;3.60;1.00;;;;;;4964185;28;20466;-79
2021/11/23 08:08:04;;;;;;;39.17;22.37;;;3.50;1.00;;;;;;4986491;28;20961;-79
2021/11/23 08:10:29;;;;;;;42.00;23.27;;;3.40;1.00;;;;;;4984688;28;20888;-78
2021/11/23 08:12:55;;;;;;;37.07;22.43;;;3.40;1.00;;;;;;4969098;28;20476;-79
2021/11/23 08:15:21;;;;;;;44.20;23.80;;;3.40;99.90;;;;;;4978772;28;20176;-79
2021/11/23 08:17:48;;;;;;;36.27;22.80;;;3.30;99.90;;;;;;4984685;28;20665;-80
2021/11/23 08:20:14;;;;;;;38.17;24.17;;;3.50;99.90;;;;;;4986034;28;20460;-79
2021/11/23 08:22:40;;;;;;;35.07;22.97;;;3.50;1.00;;;;;;4978361;28;20460;-78
2021/11/23 08:25:07;;;;;;;39.90;23.90;;;3.50;99.90;;;;;;4959073;28;20456;-78
2021/11/23 08:27:33;;;;;;;40.17;25.50;;;3.50;1.00;;;;;;4983835;28;20495;-77
2021/11/23 08:29:59;;;;;;;39.87;24.50;;;3.50;1.00;;;;;;4984276;28;20530;-79
2021/11/23 08:32:26;;;;;;;40.37;23.27;;;3.60;99.90;;;;;;4986343;28;22532;-78
2021/11/23 08:34:52;;;;;;;41.50;24.13;;;3.50;99.90;;;;;;4961495;28;21160;-78
2021/11/23 08:37:18;;;;;;;46.70;26.23;;;3.60;99.90;;;;;;4986047;28;20865;-78
2021/11/23 08:39:44;;;;;;;36.77;22.90;;;3.50;1.00;;;;;;4986781;28;20527;-78
2021/11/23 08:42:10;;;;;;;44.50;24.70;;;3.60;99.90;;;;;;4986506;28;20598;-78
2021/11/23 08:44:36;;;;;;;45.97;23.70;;;3.60;16.80;;;;;;4981941;28;20482;-78
2021/11/23 08:47:02;;;;;;;36.20;24.53;;;3.60;1.00;;;;;;4969088;28;20901;-79
2021/11/23 08:49:28;;;;;;;41.07;23.37;;;3.60;1.00;;;;;;4972161;28;20208;-78
2021/11/23 08:51:54;;;;;;;37.93;24.17;;;3.60;99.90;;;;;;4983011;28;20485;-78
2021/11/23 08:54:20;;;;;;;39.60;24.40;;;3.50;99.90;;;;;;4979748;28;20212;-78
2021/11/23 08:56:56;;;;;;;41.23;26.17;;;3.50;99.90;;;;;;4986367;28;20585;-78
2021/11/23 08:59:22;;;;;;;43.13;25.90;;;3.60;99.90;;;;;;4983033;28;20979;-78
2021/11/23 09:01:48;;;;;;;38.50;23.93;;;3.70;99.90;;;;;;4964676;28;20455;-78
2021/11/23 09:04:14;;;;;;;43.07;26.10;;;3.70;99.90;;;;;;4973102;28;20510;-79
2021/11/23 09:06:41;;;;;;;45.90;26.60;;;3.80;99.90;;;;;;4974671;28;20509;-77
2021/11/23 09:09:09;;;;;;;44.33;23.90;;;3.80;99.90;;;;;;4983084;28;20593;-78
2021/11/23 09:11:39;;;;;;;40.53;24.43;;;3.90;99.90;;;;;;4983577;28;20494;-78
2021/11/23 09:14:05;;;;;;;40.07;23.60;;;4.00;99.90;;;;;;4962467;28;20456;-79
2021/11/23 09:16:35;;;;;;;36.77;23.20;;;4.00;99.90;;;;;;4981993;28;20471;-79
2021/11/23 09:19:02;;;;;;;50.27;24.93;;;4.00;99.90;;;;;;4971383;28;20841;-78
2021/11/23 09:21:28;;;;;;;44.13;25.27;;;4.00;99.90;;;;;;4980791;28;20529;-78
2021/11/23 09:23:57;;;;;;;45.23;23.87;;;4.00;99.90;;;;;;4986026;28;20478;-79
2021/11/23 09:26:23;;;;;;;43.60;24.77;;;4.00;99.90;;;;;;4960971;28;20830;-78
2021/11/23 09:28:50;;;;;;;41.33;24.03;;;4.10;99.90;;;;;;4953854;28;20747;-78
2021/11/23 09:31:15;;;;;;;46.00;24.70;;;4.20;99.90;;;;;;4980869;28;20487;-78
2021/11/23 09:33:41;;;;;;;42.77;25.63;;;4.20;99.90;;;;;;4978374;28;20436;-78
2021/11/23 09:36:09;;;;;;;42.23;24.50;;;4.20;99.90;;;;;;4977986;28;20191;-78
2021/11/23 09:38:36;;;;;;;40.80;25.17;;;4.20;99.90;;;;;;4969148;28;20307;-78
2021/11/23 09:41:03;;;;;;;39.10;24.07;;;4.20;99.90;;;;;;4981759;28;21251;-78
2021/11/23 09:43:29;;;;;;;39.90;25.50;;;4.20;99.90;;;;;;4980225;28;20474;-78
2021/11/23 09:45:55;;;;;;;41.60;24.90;;;4.30;99.90;;;;;;4981562;28;20476;-78
2021/11/23 09:48:21;;;;;;;41.43;24.20;;;4.30;99.90;;;;;;4980943;28;20500;-78
2021/11/23 09:50:47;;;;;;;40.77;23.67;;;4.30;99.90;;;;;;4978972;28;20558;-78
2021/11/23 09:53:17;;;;;;;41.73;25.13;;;4.30;99.90;;;;;;4983658;28;20450;-78
2021/11/23 09:55:43;;;;;;;38.40;23.90;;;4.30;99.90;;;;;;4977115;28;20435;-77
2021/11/23 09:58:12;;;;;;;37.97;24.50;;;4.30;99.90;;;;;;4981907;28;20463;-77
2021/11/23 10:00:40;;;;;;;39.10;24.00;;;4.30;99.90;;;;;;4985076;28;20188;-77
2021/11/23 10:03:18;;;;;;;37.93;22.80;;;4.30;99.90;;;;;;4969967;28;20474;-78
2021/11/23 10:05:44;;;;;;;34.60;22.77;;;4.30;99.90;;;;;;4983418;28;20510;-78
2021/11/23 10:08:16;;;;;;;36.37;22.23;;;4.40;99.90;;;;;;4979200;28;20447;-77
2021/11/23 10:10:51;;;;;;;39.87;24.47;;;4.40;99.90;;;;;;4980189;28;20475;-77
2021/11/23 10:13:20;;;;;;;37.77;23.60;;;4.50;99.90;;;;;;4969346;28;20463;-78
2021/11/23 10:15:47;;;;;;;36.00;23.07;;;4.50;99.90;;;;;;4959212;28;20459;-79
2021/11/23 10:18:24;;;;;;;35.07;23.77;;;4.40;99.90;;;;;;4966463;28;21143;-79
2021/11/23 10:20:55;;;;;;;38.60;24.50;;;4.40;99.90;;;;;;4983583;28;20553;-78
2021/11/23 10:23:31;;;;;;;42.27;24.10;;;4.50;99.90;;;;;;4986273;28;20439;-78
2021/11/23 10:26:11;;;;;;;35.70;23.40;;;4.60;99.90;;;;;;4971448;28;20995;-78
2021/11/23 10:28:38;;;;;;;39.23;23.40;;;4.60;99.90;;;;;;4977531;28;20897;-78
2021/11/23 10:31:06;;;;;;;40.60;24.03;;;4.60;99.90;;;;;;4978121;28;20491;-78
2021/11/23 10:33:34;;;;;;;37.60;23.10;;;4.60;99.90;;;;;;4984235;28;20467;-78
2021/11/23 10:36:04;;;;;;;36.87;23.87;;;4.70;99.90;;;;;;4980773;28;21115;-78
2021/11/23 10:38:30;;;;;;;35.40;24.07;;;4.70;99.90;;;;;;4988358;28;20841;-78
2021/11/23 10:40:56;;;;;;;40.70;25.03;;;4.70;99.90;;;;;;4979903;28;20535;-78
2021/11/23 10:43:23;;;;;;;35.47;23.67;;;4.60;99.90;;;;;;4986723;28;20450;-79
2021/11/23 10:45:53;;;;;;;34.10;23.00;;;4.60;99.90;;;;;;4980246;28;20461;-78
2021/11/23 10:48:23;;;;;;;34.00;23.40;;;4.70;99.90;;;;;;4967832;28;20812;-77
2021/11/23 10:51:11;;;;;;;40.13;23.50;;;4.70;99.90;;;;;;4982995;28;21120;-78
2021/11/23 10:53:42;;;;;;;35.47;21.13;;;4.70;99.90;;;;;;4982946;28;20513;-78
2021/11/23 10:56:13;;;;;;;36.40;23.30;;;4.80;99.90;;;;;;4978413;28;20450;-78
2021/11/23 10:58:41;;;;;;;36.27;22.40;;;4.80;99.90;;;;;;4981441;28;20459;-79
2021/11/23 11:01:10;;;;;;;41.40;23.30;;;4.80;99.90;;;;;;4977067;28;20677;-78
2021/11/23 11:03:36;;;;;;;35.33;22.37;;;4.80;99.90;;;;;;4983855;28;20899;-78
2021/11/23 11:06:03;;;;;;;44.00;25.57;;;4.80;99.90;;;;;;4976688;28;20538;-78
2021/11/23 11:08:35;;;;;;;40.67;23.67;;;4.80;99.90;;;;;;4987750;28;20509;-78
2021/11/23 11:11:02;;;;;;;35.20;23.20;;;4.80;99.90;;;;;;4986809;28;20590;-79
2021/11/23 11:13:28;;;;;;;43.77;24.00;;;4.90;99.90;;;;;;4988902;28;20517;-78
2021/11/23 11:15:59;;;;;;;38.30;23.17;;;4.90;99.90;;;;;;4983558;28;20525;-79
2021/11/23 11:18:25;;;;;;;38.87;24.03;;;5.00;99.90;;;;;;4987509;28;20541;-78
2021/11/23 11:21:03;;;;;;;34.07;21.10;;;5.00;99.90;;;;;;4985643;28;20540;-79
2021/11/23 11:23:42;;;;;;;42.80;22.87;;;4.90;99.90;;;;;;4972988;28;20451;-78
2021/11/23 11:26:16;;;;;;;44.50;24.87;;;5.00;99.90;;;;;;4985667;28;20612;-78
2021/11/23 11:28:43;;;;;;;38.93;23.23;;;5.00;99.90;;;;;;4984448;28;20500;-78
2021/11/23 11:31:35;;;;;;;39.30;22.87;;;5.00;99.90;;;;;;4988967;28;20463;-78
2021/11/23 11:34:21;;;;;;;40.53;23.30;;;5.00;99.90;;;;;;4979319;28;20864;-78
2021/11/23 11:36:50;;;;;;;45.07;24.77;;;5.10;99.90;;;;;;4987678;28;21028;-78
2021/11/23 11:39:35;;;;;;;43.63;24.80;;;4.90;99.90;;;;;;4987001;28;20864;-78
2021/11/23 11:42:01;;;;;;;44.10;24.10;;;5.10;99.90;;;;;;4987908;28;20489;-78
2021/11/23 11:44:40;;;;;;;42.30;24.60;;;5.10;99.90;;;;;;4985806;28;20601;-78
2021/11/23 11:47:10;;;;;;;51.80;24.73;;;5.20;99.90;;;;;;4984767;28;20184;-79
2021/11/23 11:49:48;;;;;;;40.87;24.70;;;5.10;99.90;;;;;;4987049;28;20484;-78
2021/11/23 11:52:14;;;;;;;42.10;22.87;;;5.20;99.90;;;;;;4989473;28;20528;-78
2021/11/23 11:54:41;;;;;;;48.43;24.50;;;5.20;99.90;;;;;;4977865;28;21030;-78
2021/11/23 11:57:28;;;;;;;42.70;24.80;;;5.20;99.90;;;;;;4971013;28;20494;-78
2021/11/23 11:59:54;;;;;;;49.63;26.03;;;5.10;99.90;;;;;;4976443;28;20703;-77
2021/11/23 12:02:22;;;;;;;50.20;27.17;;;5.20;99.90;;;;;;4978886;28;20637;-77
2021/11/23 12:04:59;;;;;;;46.70;27.60;;;5.10;99.90;;;;;;4984725;28;20462;-78
2021/11/23 12:07:45;;;;;;;57.77;27.07;;;5.10;99.90;;;;;;4990887;28;20447;-78
2021/11/23 12:10:25;;;;;;;51.27;29.17;;;5.10;99.90;;;;;;4987957;28;20451;-78
2021/11/23 12:12:57;;;;;;;55.63;29.10;;;5.20;99.90;;;;;;4985641;28;20451;-78
2021/11/23 12:15:53;;;;;;;62.70;28.70;;;5.20;99.90;;;;;;4982528;28;20785;-78
2021/11/23 12:18:58;;;;;;;53.70;29.07;;;5.10;99.90;;;;;;4972726;28;20443;-78
2021/11/23 12:21:28;;;;;;;48.73;25.70;;;5.10;99.90;;;;;;4972895;28;20505;-78
2021/11/23 12:23:56;;;;;;;54.23;30.17;;;5.10;99.90;;;;;;4979004;28;20456;-78
2021/11/23 12:26:37;;;;;;;53.50;27.77;;;5.20;99.90;;;;;;4972850;28;20447;-77
2021/11/23 12:29:07;;;;;;;65.73;29.03;;;5.20;99.90;;;;;;4983117;28;20506;-78
2021/11/23 12:31:42;;;;;;;56.93;28.70;;;5.10;99.90;;;;;;4976762;28;20475;-78
2021/11/23 12:34:08;;;;;;;52.13;27.63;;;5.20;99.90;;;;;;4967593;28;21217;-78
2021/11/23 12:36:44;;;;;;;56.87;28.90;;;5.30;99.90;;;;;;4980041;28;20445;-78
2021/11/23 12:39:15;;;;;;;52.60;28.60;;;5.30;99.90;;;;;;4982305;28;20196;-78
2021/11/23 12:41:43;;;;;;;53.10;26.23;;;5.30;99.90;;;;;;4979447;28;20440;-78
2021/11/23 12:44:19;;;;;;;61.17;28.73;;;5.20;99.90;;;;;;4980438;28;21007;-77
2021/11/23 12:46:56;;;;;;;55.40;28.27;;;5.20;99.90;;;;;;4977513;28;20446;-78